createdAt,value
2017-06-04T17:17:43.314Z,85
2017-06-04T17:18:23.980Z,85
2017-06-04T17:20:06.674Z,85
2017-06-04T17:20:47.894Z,85
2017-06-04T17:21:32.428Z,85
2017-06-04T17:22:14.666Z,85
2017-06-04T17:23:05.505Z,85
2017-06-04T17:23:47.197Z,85
2017-06-04T17:24:26.759Z,85
2017-06-04T17:25:07.252Z,80
2017-06-04T17:25:49.577Z,80
2017-06-04T17:26:30.208Z,80
2017-06-04T17:27:13.592Z,80
2017-06-04T17:27:54.086Z,80
2017-06-04T17:28:35.606Z,80
2017-06-04T17:29:16.248Z,75
2017-06-04T17:30:03.629Z,75
2017-06-04T17:30:47.191Z,80
2017-06-04T17:31:33.589Z,80
2017-06-04T17:32:32.928Z,80
2017-06-04T17:35:04.396Z,80
2017-06-04T17:35:47.509Z,80
2017-06-04T17:36:38.115Z,75
2017-06-04T17:37:18.912Z,75
2017-06-04T17:38:00.591Z,80
2017-06-04T17:38:41.248Z,80
2017-06-04T17:39:25.450Z,80
2017-06-04T17:40:12.547Z,75
2017-06-04T17:40:53.024Z,75
2017-06-04T17:41:37.323Z,75
2017-06-04T17:42:17.559Z,75
2017-06-04T17:42:59.791Z,75
2017-06-04T17:43:43.495Z,70
2017-06-04T17:46:03.861Z,70
2017-06-04T17:46:44.336Z,70
2017-06-04T17:47:24.847Z,70
2017-06-04T17:48:05.604Z,65
2017-06-04T17:50:18.919Z,65
2017-06-04T17:50:59.319Z,65
2017-06-04T17:51:39.939Z,65
2017-06-04T17:52:25.783Z,60
2017-06-04T17:53:06.347Z,60
2017-06-04T17:53:46.806Z,60
2017-06-04T17:54:27.365Z,60
2017-06-04T17:55:07.836Z,60
2017-06-04T17:55:54.927Z,65
2017-06-04T17:56:35.290Z,65
2017-06-04T17:57:15.787Z,65
2017-06-04T17:57:59.898Z,65
2017-06-04T17:58:40.305Z,65
2017-06-04T17:59:20.745Z,60
2017-06-04T18:00:01.288Z,60
2017-06-04T18:00:41.843Z,60
2017-06-04T18:01:22.329Z,60
2017-06-04T18:02:02.813Z,60
2017-06-04T18:02:43.558Z,55
2017-06-04T18:05:11.123Z,60
2017-06-04T18:05:54.195Z,60
2017-06-04T18:06:34.765Z,60
2017-06-04T18:07:22.111Z,60
2017-06-04T18:08:02.648Z,60
2017-06-04T18:08:43.126Z,60
2017-06-04T18:09:23.576Z,55
2017-06-04T18:10:04.141Z,55
2017-06-04T18:10:44.736Z,55
2017-06-04T18:11:26.024Z,55
2017-06-04T18:12:10.928Z,55
2017-06-04T18:15:07.672Z,50
2017-06-04T18:15:48.326Z,50
2017-06-04T18:16:29.108Z,50
2017-06-04T18:17:09.363Z,50
2017-06-04T18:17:49.883Z,45
2017-06-04T18:18:30.360Z,45
2017-06-04T18:19:10.948Z,45
2017-06-04T18:19:51.388Z,45
2017-06-04T18:20:32.432Z,45
2017-06-04T18:21:12.436Z,45
2017-06-04T18:21:52.829Z,45
2017-06-04T18:22:33.452Z,45
2017-06-04T18:23:14.002Z,45
2017-06-04T18:23:54.473Z,45
2017-06-04T18:24:34.911Z,50
2017-06-04T18:25:15.437Z,45
2017-06-04T18:25:56.022Z,45
2017-06-04T18:26:36.501Z,45
2017-06-04T18:27:17.032Z,45
2017-06-04T18:27:57.684Z,45
2017-06-04T18:28:38.818Z,45
2017-06-04T18:29:19.181Z,40
2017-06-04T18:29:59.706Z,40
2017-06-04T18:30:41.422Z,40
2017-06-04T18:31:21.235Z,40
2017-06-04T18:32:01.782Z,35
2017-06-04T18:32:43.172Z,35
2017-06-04T18:33:23.847Z,35
2017-06-04T18:34:04.485Z,35
2017-06-04T18:34:45.027Z,35
2017-06-04T18:35:25.557Z,35
2017-06-04T18:36:06.281Z,35
2017-06-04T18:36:46.863Z,30
2017-06-04T18:37:27.389Z,30
2017-06-04T18:38:07.875Z,30
2017-06-04T18:38:48.405Z,30
2017-06-04T18:39:28.985Z,30
2017-06-04T18:40:09.643Z,30
2017-06-04T18:40:50.504Z,25
2017-06-04T18:41:31.099Z,25
2017-06-04T18:42:11.662Z,25
2017-06-04T18:42:52.156Z,25
2017-06-04T18:43:32.867Z,25
2017-06-04T18:44:13.515Z,25
2017-06-04T18:44:54.778Z,25
2017-06-04T18:45:35.457Z,25
2017-06-04T18:46:16.021Z,25
2017-06-04T18:46:56.594Z,25
2017-06-04T18:47:37.206Z,25
2017-06-04T18:48:17.768Z,25
2017-06-04T18:48:58.554Z,25
2017-06-04T18:49:40.242Z,25
2017-06-04T18:50:20.744Z,25
2017-06-04T18:51:01.238Z,25
2017-06-04T18:51:41.821Z,20
2017-06-04T18:52:22.207Z,20
2017-06-04T18:53:02.666Z,20
2017-06-04T18:53:43.682Z,20
2017-06-04T18:54:27.766Z,20
2017-06-04T18:55:08.598Z,20
2017-06-04T18:55:49.367Z,20
2017-06-04T18:56:29.931Z,20
2017-06-04T18:57:10.964Z,15
2017-06-04T18:57:52.361Z,15
2017-06-04T18:58:32.595Z,15
2017-06-04T18:59:13.432Z,15
2017-06-04T18:59:54.420Z,15
2017-06-04T19:00:35.395Z,15
2017-06-04T19:01:16.276Z,15
2017-06-04T19:01:57.031Z,15
2017-06-04T19:02:38.914Z,15
2017-06-04T19:03:19.634Z,15
2017-06-04T19:04:02.347Z,15
2017-06-04T19:04:43.920Z,10
2017-06-04T19:11:48.515Z,10
2017-06-04T19:12:29.821Z,10
2017-06-04T19:13:11.360Z,5
2017-06-04T19:13:52.569Z,5
2017-06-04T19:14:34.019Z,5
2017-06-04T19:15:14.321Z,5
2017-06-04T19:15:55.668Z,5
2017-06-04T19:16:37.855Z,5
2017-06-04T19:17:19.704Z,5
2017-06-04T19:18:00.571Z,5
2017-06-04T19:18:41.514Z,5
2017-06-04T19:19:22.340Z,5
2017-06-04T19:20:05.005Z,5
2017-06-04T19:20:45.557Z,5
2017-06-04T19:21:28.972Z,5
2017-06-04T19:22:14.000Z,5
2017-06-04T19:22:54.759Z,5
2017-06-04T19:23:35.314Z,5
2017-06-04T19:24:17.528Z,5
2017-06-04T19:24:58.130Z,0
2017-06-04T19:25:40.523Z,0
2017-06-04T19:26:21.405Z,0
2017-06-04T19:27:03.960Z,0
2017-06-04T19:30:42.202Z,0
2017-06-04T19:31:25.854Z,0
2017-06-04T19:32:06.284Z,0
2017-06-04T19:32:47.157Z,0
2017-06-04T19:33:29.226Z,0
2017-06-04T19:34:09.955Z,0
2017-06-04T19:34:50.945Z,0
2017-06-04T19:35:31.885Z,0
2017-06-04T19:36:12.506Z,0
2017-06-04T19:36:53.169Z,0
2017-06-04T19:37:35.536Z,0
2017-06-04T19:38:22.677Z,0
2017-06-04T19:39:20.734Z,0
2017-06-04T19:40:06.690Z,0
2017-06-04T19:44:00.716Z,0
2017-06-04T19:44:41.491Z,0
2017-06-04T19:45:22.329Z,0
2017-06-04T19:46:03.362Z,0
2017-06-04T19:46:44.130Z,0
2017-06-04T19:47:24.344Z,0
2017-06-04T19:48:04.783Z,0
2017-06-04T19:48:45.417Z,0
2017-06-04T19:49:25.960Z,0
2017-06-04T19:50:06.669Z,0
2017-06-04T19:50:47.174Z,0
2017-06-04T19:51:27.853Z,0
2017-06-04T19:52:08.269Z,0
2017-06-04T19:52:48.737Z,0
2017-06-04T19:53:29.475Z,0
2017-06-04T19:54:10.197Z,0
2017-06-04T19:54:50.712Z,0
2017-06-04T19:55:31.227Z,0
2017-06-04T19:56:11.670Z,0
2017-06-04T19:56:52.514Z,0
2017-06-04T19:57:32.944Z,0
2017-06-04T19:58:13.488Z,0
2017-06-04T19:58:54.196Z,0
2017-06-04T19:59:34.787Z,0
2017-06-04T20:00:15.607Z,0
2017-06-04T20:00:56.209Z,0
2017-06-04T20:01:36.712Z,0
2017-06-04T20:02:17.413Z,0
2017-06-04T20:02:58.283Z,0
2017-06-04T20:03:38.884Z,0
2017-06-04T20:04:19.586Z,0
2017-06-04T20:05:00.318Z,0
2017-06-04T20:05:40.947Z,0
2017-06-04T20:06:21.241Z,0
2017-06-04T20:07:02.516Z,0
2017-06-04T20:07:43.304Z,0
2017-06-04T20:08:24.145Z,0
2017-06-04T20:09:04.939Z,0
2017-06-04T20:09:45.577Z,0
2017-06-04T20:10:26.239Z,0
2017-06-04T20:11:06.944Z,0
2017-06-04T20:11:47.385Z,0
2017-06-04T20:14:21.537Z,0
2017-06-04T20:17:04.875Z,0
2017-06-04T20:17:44.420Z,0
2017-06-04T20:18:26.997Z,0
2017-06-04T20:19:07.757Z,0
2017-06-04T20:20:33.765Z,0
2017-06-04T20:21:14.560Z,0
2017-06-04T20:21:58.305Z,0
2017-06-04T20:26:27.684Z,0
2017-06-04T20:27:11.158Z,0
2017-06-04T20:27:51.686Z,0
2017-06-04T20:28:32.536Z,0
2017-06-04T20:29:13.262Z,0
2017-06-04T20:30:00.274Z,0
2017-06-04T20:35:21.808Z,0
2017-06-04T20:41:02.409Z,0
2017-06-04T20:41:43.051Z,0
2017-06-04T20:43:08.145Z,0
2017-06-04T20:43:52.002Z,0
2017-06-04T20:44:32.545Z,0
2017-06-04T20:45:13.326Z,0
2017-06-04T20:45:54.263Z,0
2017-06-04T20:46:35.278Z,0
2017-06-04T20:47:15.841Z,0
2017-06-04T20:47:58.389Z,0
2017-06-04T20:48:40.829Z,0
2017-06-04T20:49:22.905Z,0
2017-06-04T20:50:03.501Z,0
2017-06-04T20:50:45.791Z,0
2017-06-04T20:51:26.232Z,0
2017-06-04T20:52:06.823Z,0
2017-06-04T20:52:47.433Z,0
2017-06-04T20:53:28.092Z,0
2017-06-04T20:54:08.664Z,0
2017-06-04T20:54:49.179Z,0
2017-06-04T20:55:29.955Z,0
2017-06-04T20:56:10.490Z,0
2017-06-04T20:56:53.816Z,0
2017-06-04T20:57:35.444Z,0
2017-06-04T20:58:36.632Z,0
2017-06-04T20:59:16.438Z,0
2017-06-04T20:59:57.041Z,0
2017-06-04T21:00:39.427Z,0
2017-06-04T21:01:20.434Z,0
2017-06-04T21:02:01.134Z,0
2017-06-04T21:02:41.625Z,0
2017-06-04T21:03:22.257Z,0
2017-06-04T21:04:06.372Z,0
2017-06-04T21:04:47.058Z,0
2017-06-04T21:05:27.511Z,0
2017-06-04T21:06:08.067Z,0
2017-06-04T21:06:48.560Z,0
2017-06-04T21:07:29.157Z,0
2017-06-04T21:08:09.802Z,0
2017-06-04T21:08:50.312Z,0
2017-06-04T21:09:31.604Z,0
2017-06-04T21:10:12.064Z,0
2017-06-04T21:10:52.871Z,0
2017-06-04T21:13:11.585Z,0
2017-06-04T21:13:52.368Z,0
2017-06-04T21:14:32.890Z,0
2017-06-04T21:15:13.406Z,0
2017-06-04T21:15:53.875Z,0
2017-06-04T21:16:34.337Z,0
2017-06-04T21:17:14.939Z,0
2017-06-04T21:17:55.509Z,0
2017-06-04T21:18:36.282Z,0
2017-06-04T21:19:16.777Z,0
2017-06-04T21:19:57.405Z,0
2017-06-04T21:20:37.932Z,0
2017-06-04T21:21:18.535Z,0
2017-06-04T21:21:59.670Z,0
2017-06-04T21:22:40.106Z,0
2017-06-04T21:23:20.646Z,0
2017-06-04T21:24:01.077Z,0
2017-06-04T21:24:42.172Z,0
2017-06-04T21:25:22.735Z,0
2017-06-04T21:26:03.196Z,0
2017-06-04T21:26:43.741Z,0
2017-06-04T21:27:24.282Z,0
2017-06-04T21:28:04.765Z,0
2017-06-04T21:28:45.230Z,0
2017-06-04T21:29:25.832Z,0
2017-06-04T21:30:06.361Z,0
2017-06-04T21:30:47.121Z,0
2017-06-04T21:31:27.698Z,0
2017-06-04T21:32:08.196Z,0
2017-06-04T21:32:48.681Z,0
2017-06-04T21:33:29.811Z,0
2017-06-04T21:34:10.350Z,0
2017-06-04T21:34:50.820Z,0
2017-06-04T21:35:31.364Z,0
2017-06-04T21:36:11.949Z,0
2017-06-04T21:36:52.371Z,0
2017-06-04T21:37:32.925Z,0
2017-06-04T21:38:13.659Z,0
2017-06-04T21:38:54.178Z,0
2017-06-04T21:39:34.735Z,0
2017-06-04T21:40:15.101Z,0
2017-06-04T21:40:55.668Z,0
2017-06-04T21:41:36.187Z,0
2017-06-04T21:42:16.671Z,0
2017-06-04T21:42:57.151Z,0
2017-06-04T21:43:37.686Z,0
2017-06-04T21:44:18.201Z,0
2017-06-04T21:44:58.674Z,0
2017-06-04T21:45:39.238Z,0
2017-06-04T21:46:19.789Z,0
2017-06-04T21:47:00.231Z,0
2017-06-04T21:47:40.749Z,0
2017-06-04T21:48:21.269Z,0
2017-06-04T21:49:01.870Z,0
2017-06-04T21:49:42.327Z,0
2017-06-04T21:50:23.169Z,0
2017-06-04T21:51:03.679Z,0
2017-06-04T21:51:44.211Z,0
2017-06-04T21:52:24.701Z,0
2017-06-04T21:53:05.454Z,0
2017-06-04T21:53:45.890Z,0
2017-06-04T21:54:26.382Z,0
2017-06-04T21:55:06.853Z,0
2017-06-04T21:55:47.366Z,0
2017-06-04T21:56:28.062Z,0
2017-06-04T21:57:08.537Z,0
2017-06-04T21:57:49.387Z,0
2017-06-04T21:58:29.945Z,0
2017-06-04T21:59:10.408Z,0
2017-06-04T21:59:50.859Z,0
2017-06-04T22:00:31.416Z,0
2017-06-04T22:01:11.981Z,0
2017-06-04T22:01:52.508Z,0
2017-06-04T22:02:32.935Z,0
2017-06-04T22:03:13.389Z,0
2017-06-04T22:03:53.993Z,0
2017-06-04T22:04:34.426Z,0
2017-06-04T22:05:14.868Z,0
2017-06-04T22:05:55.357Z,0
2017-06-04T22:06:35.940Z,0
2017-06-04T22:07:16.420Z,0
2017-06-04T22:07:56.879Z,0
2017-06-04T22:08:37.397Z,0
2017-06-04T22:09:18.047Z,0
2017-06-04T22:09:58.424Z,0
2017-06-04T22:10:38.942Z,0
2017-06-04T22:11:19.458Z,0
2017-06-04T22:11:59.988Z,0
2017-06-04T22:12:40.522Z,0
2017-06-04T22:13:21.072Z,0
2017-06-04T22:14:01.583Z,0
2017-06-04T22:14:42.194Z,0
2017-06-04T22:15:22.739Z,0
2017-06-04T22:16:03.376Z,0
2017-06-04T22:16:43.872Z,0
2017-06-04T22:17:24.402Z,0
2017-06-04T22:18:07.992Z,0
2017-06-04T22:18:48.517Z,0
2017-06-04T22:19:28.984Z,0
2017-06-04T22:20:09.481Z,0
2017-06-04T22:20:49.963Z,0
2017-06-04T22:21:30.543Z,0
2017-06-04T22:22:11.040Z,0
2017-06-04T22:22:51.573Z,0
2017-06-04T22:23:32.083Z,0
2017-06-04T22:24:12.534Z,0
2017-06-04T22:24:53.376Z,0
2017-06-04T22:25:36.374Z,0
2017-06-04T22:26:18.262Z,0
2017-06-04T22:27:02.734Z,0
2017-06-04T22:27:43.236Z,0
2017-06-04T22:28:24.484Z,0
2017-06-04T22:29:04.727Z,0
2017-06-04T22:29:45.219Z,0
2017-06-04T22:30:25.745Z,0
2017-06-04T22:31:08.139Z,0
2017-06-04T22:31:50.700Z,0
2017-06-04T22:32:30.776Z,0
2017-06-04T22:33:11.402Z,0
2017-06-04T22:33:51.986Z,0
2017-06-04T22:34:32.428Z,0
2017-06-04T22:35:12.961Z,0
2017-06-04T22:35:53.438Z,0
2017-06-04T22:36:34.044Z,0
2017-06-04T22:37:14.547Z,0
2017-06-04T22:37:55.163Z,0
2017-06-04T22:38:35.692Z,0
2017-06-04T22:39:16.188Z,0
2017-06-04T22:39:56.661Z,0
2017-06-04T22:40:37.148Z,0
2017-06-04T22:41:17.732Z,0
2017-06-04T22:41:58.175Z,0
2017-06-04T22:42:38.746Z,0
2017-06-04T22:43:19.243Z,0
2017-06-04T22:43:59.768Z,0
2017-06-04T22:44:40.256Z,0
2017-06-04T22:45:20.748Z,0
2017-06-04T22:46:01.302Z,0
2017-06-04T22:46:41.764Z,0
2017-06-04T22:47:22.247Z,0
2017-06-04T22:48:02.733Z,0
2017-06-04T22:48:43.232Z,0
2017-06-04T22:49:23.747Z,0
2017-06-04T22:50:04.223Z,0
2017-06-04T22:50:44.678Z,0
2017-06-04T22:51:25.174Z,0
2017-06-04T22:52:05.754Z,0
2017-06-04T22:52:46.236Z,0
2017-06-04T22:53:26.688Z,0
2017-06-04T22:54:07.173Z,0
2017-06-04T22:54:47.740Z,0
2017-06-04T22:55:28.226Z,0
2017-06-04T22:56:08.701Z,0
2017-06-04T22:56:49.221Z,0
2017-06-04T22:57:29.769Z,0
2017-06-04T22:58:10.294Z,0
2017-06-04T22:58:50.683Z,0
2017-06-04T22:59:31.205Z,0
2017-06-04T23:00:11.808Z,0
2017-06-04T23:00:52.344Z,0
2017-06-04T23:05:12.266Z,0
2017-06-04T23:05:53.302Z,0
2017-06-04T23:06:33.813Z,0
2017-06-04T23:07:14.299Z,0
2017-06-04T23:07:54.913Z,0
2017-06-04T23:08:35.375Z,0
2017-06-04T23:09:15.987Z,0
2017-06-04T23:09:56.458Z,0
2017-06-04T23:10:36.982Z,0
2017-06-04T23:11:17.504Z,0
2017-06-04T23:11:58.194Z,0
2017-06-04T23:12:38.742Z,0
2017-06-04T23:13:19.413Z,0
2017-06-04T23:13:59.848Z,0
2017-06-04T23:14:40.366Z,0
2017-06-04T23:15:20.819Z,0
2017-06-04T23:16:01.270Z,0
2017-06-04T23:16:41.745Z,0
2017-06-04T23:17:22.245Z,0
2017-06-04T23:18:02.754Z,0
2017-06-04T23:18:43.255Z,0
2017-06-04T23:19:23.799Z,0
2017-06-04T23:20:04.245Z,0
2017-06-04T23:20:44.802Z,0
2017-06-04T23:21:25.330Z,0
2017-06-04T23:22:05.898Z,0
2017-06-04T23:22:46.319Z,0
2017-06-04T23:23:26.779Z,0
2017-06-04T23:24:07.287Z,0
2017-06-04T23:24:47.827Z,0
2017-06-04T23:25:28.293Z,0
2017-06-04T23:26:08.917Z,0
2017-06-04T23:26:49.458Z,0
2017-06-04T23:27:30.012Z,0
2017-06-04T23:28:10.442Z,0
2017-06-04T23:28:50.916Z,0
2017-06-04T23:29:31.417Z,0
2017-06-04T23:30:11.959Z,0
2017-06-04T23:30:52.439Z,0
2017-06-04T23:31:32.967Z,0
2017-06-04T23:32:13.441Z,0
2017-06-04T23:32:53.888Z,0
2017-06-04T23:33:34.409Z,0
2017-06-04T23:34:14.926Z,0
2017-06-04T23:34:55.402Z,0
2017-06-04T23:35:35.879Z,0
2017-06-04T23:36:16.550Z,0
2017-06-04T23:36:57.093Z,0
2017-06-04T23:37:37.619Z,0
2017-06-04T23:38:18.128Z,0
2017-06-04T23:38:58.723Z,0
2017-06-04T23:39:39.331Z,0
2017-06-04T23:40:19.746Z,0
2017-06-04T23:41:00.900Z,0
2017-06-04T23:41:41.415Z,0
2017-06-04T23:42:21.928Z,0
2017-06-04T23:43:02.457Z,0
2017-06-04T23:43:42.947Z,0
2017-06-04T23:44:23.489Z,0
2017-06-04T23:45:04.012Z,0
2017-06-04T23:45:44.500Z,0
2017-06-04T23:46:25.022Z,0
2017-06-04T23:47:05.506Z,0
2017-06-04T23:47:45.974Z,0
2017-06-04T23:48:26.515Z,0
2017-06-04T23:49:06.996Z,0
2017-06-04T23:49:47.558Z,0
2017-06-04T23:50:28.083Z,0
2017-06-04T23:51:08.616Z,0
2017-06-04T23:51:49.100Z,0
2017-06-04T23:52:29.625Z,0
2017-06-04T23:53:10.076Z,0
2017-06-04T23:53:50.586Z,0
2017-06-04T23:54:31.097Z,0
2017-06-04T23:55:11.593Z,0
2017-06-04T23:55:52.284Z,0
2017-06-04T23:56:32.615Z,0
2017-06-04T23:57:13.139Z,0
2017-06-04T23:57:53.725Z,0
2017-06-04T23:58:34.178Z,0
2017-06-04T23:59:14.693Z,0
2017-06-04T23:59:55.211Z,0
